Time;durP1;ratioP1;P1;durP2;ratioP2;P2;SDS_P1;SDS_P2;PMS_P1;PMS_P2;Temp;Humidity;BMP_temperature;BMP_pressure;BME280_temperature;BME280_humidity;BME280_pressure;Samples;Min_cycle;Max_cycle;Signal;HPM_P1;HPM_P2
2023/10/08 00:01:55;;;;;;;12.53;2.40;;;;;;;-145.69;54.08;52078.03;5032045;28;20196;-81
2023/10/08 00:04:23;;;;;;;13.80;2.80;;;;;;;-145.69;53.12;52048.31;5031473;28;20759;-81
2023/10/08 00:06:52;;;;;;;10.37;2.47;;;;;;;-145.69;53.42;52056.25;5031445;28;20200;-80
2023/10/08 00:09:20;;;;;;;11.10;2.83;;;;;;;-145.69;53.20;52020.59;5032043;28;20296;-80
2023/10/08 00:11:51;;;;;;;14.20;2.70;;;;;;;-145.69;53.85;52076.03;5032145;28;20208;-80
2023/10/08 00:14:21;;;;;;;7.53;2.20;;;;;;;-145.69;54.47;52048.31;5032178;28;20214;-80
2023/10/08 00:16:49;;;;;;;10.93;2.30;;;;;;;-145.69;54.33;52020.59;5031843;28;20235;-81
2023/10/08 00:19:18;;;;;;;12.30;2.50;;;;;;;-145.69;54.73;52040.41;5031972;28;20207;-80
2023/10/08 00:21:45;;;;;;;9.10;2.73;;;;;;;-145.69;54.59;52036.44;5031475;28;20204;-81
2023/10/08 00:24:13;;;;;;;9.40;2.23;;;;;;;-145.69;54.23;52052.28;5031930;28;20251;-81
2023/10/08 00:26:41;;;;;;;15.97;2.40;;;;;;;-145.69;54.47;52066.16;5073326;27;20221;-80
2023/10/08 00:29:15;;;;;;;17.20;2.13;;;;;;;-145.69;54.88;52072.09;5136376;27;20239;-81
2023/10/08 00:31:45;;;;;;;17.83;2.53;;;;;;;-145.69;55.23;52062.19;5114130;27;20663;-80
2023/10/08 00:34:13;;;;;;;19.85;2.80;;;;;;;-145.69;56.76;52076.03;5046335;27;20200;-81
2023/10/08 00:36:41;;;;;;;14.43;2.50;;;;;;;-145.69;56.59;52032.47;5030836;28;20311;-81
2023/10/08 00:39:13;;;;;;;12.25;2.60;;;;;;;-145.69;56.61;52048.31;5060585;27;20659;-81
2023/10/08 00:41:42;;;;;;;13.85;3.20;;;;;;;-145.69;56.29;52062.19;5135676;27;20211;-81
2023/10/08 00:44:12;;;;;;;9.65;2.80;;;;;;;-145.69;54.81;52054.25;5135670;27;20236;-81
2023/10/08 00:46:42;;;;;;;13.33;2.67;;;;;;;-145.69;55.53;52036.44;5135920;27;20533;-81
2023/10/08 00:49:24;;;;;;;14.43;2.83;;;;;;;-145.69;55.70;52040.41;5135668;27;20286;-81
2023/10/08 00:52:01;;;;;;;8.60;2.20;;;;;;;-145.69;55.94;52062.19;5135925;27;20201;-81
2023/10/08 00:54:32;;;;;;;11.10;2.23;;;;;;;-145.69;55.84;52050.31;5135569;27;20203;-81
2023/10/08 00:57:04;;;;;;;11.33;2.47;;;;;;;-145.69;56.32;52056.25;5134501;27;20249;-81
2023/10/08 00:59:36;;;;;;;8.30;2.03;;;;;;;-145.69;56.59;52082.00;5135561;27;20192;-80
2023/10/08 01:02:08;;;;;;;10.17;2.53;;;;;;;-145.69;56.94;52083.97;5105201;27;20193;-81
2023/10/08 01:04:37;;;;;;;20.43;3.20;;;;;;;-145.69;56.80;52032.47;5030131;28;20713;-81
2023/10/08 01:07:12;;;;;;;11.93;2.20;;;;;;;-145.69;56.84;52078.03;5030773;28;20211;-81
2023/10/08 01:09:42;;;;;;;12.40;2.60;;;;;;;-145.69;57.35;52052.28;5030892;28;20199;-81
2023/10/08 01:12:12;;;;;;;11.87;2.17;;;;;;;-145.69;56.70;52062.19;5030446;28;20196;-81
2023/10/08 01:14:42;;;;;;;12.67;2.67;;;;;;;-145.69;55.67;52070.09;5030867;28;20650;-81
2023/10/08 01:17:09;;;;;;;13.97;3.07;;;;;;;-145.69;55.62;52060.22;5030954;28;20254;-81
2023/10/08 01:19:40;;;;;;;10.47;2.57;;;;;;;-145.69;55.79;52050.31;5030798;28;20234;-81
2023/10/08 01:22:08;;;;;;;11.20;2.50;;;;;;;-145.69;56.27;52072.09;5031252;28;20547;-81
2023/10/08 01:24:35;;;;;;;18.60;2.27;;;;;;;-145.69;56.32;52076.03;5030941;28;20250;-81
2023/10/08 01:27:04;;;;;;;9.03;2.27;;;;;;;-145.69;56.56;52036.44;5030853;28;20335;-81
2023/10/08 01:29:31;;;;;;;14.40;3.33;;;;;;;-145.69;56.49;52074.06;5031288;28;20206;-81
2023/10/08 01:31:58;;;;;;;7.90;2.27;;;;;;;-145.69;56.03;52056.25;5031098;28;20254;-81
2023/10/08 01:34:30;;;;;;;15.67;2.93;;;;;;;-145.69;56.17;52056.25;5030266;28;20273;-81
2023/10/08 01:37:01;;;;;;;18.33;2.47;;;;;;;-145.69;56.38;52060.22;5030501;28;20321;-81
2023/10/08 01:39:32;;;;;;;10.20;2.53;;;;;;;-145.69;56.67;52085.94;5030673;28;20261;-80
2023/10/08 01:41:58;;;;;;;15.97;2.37;;;;;;;-145.69;57.02;52080.00;5029471;28;20295;-80
2023/10/08 01:44:25;;;;;;;12.47;2.63;;;;;;;-145.69;57.46;52036.44;5030269;28;20231;-80
2023/10/08 01:46:50;;;;;;;10.37;2.47;;;;;;;-145.69;57.47;52064.16;5030548;28;20210;-81
2023/10/08 01:49:21;;;;;;;8.03;2.40;;;;;;;-145.69;57.49;52054.25;5030688;28;20286;-80
2023/10/08 01:51:49;;;;;;;14.73;3.47;;;;;;;-145.69;57.35;52078.03;5030105;28;20207;-80
2023/10/08 01:54:17;;;;;;;14.73;2.83;;;;;;;-145.69;57.41;52072.09;5029009;28;20212;-81
2023/10/08 01:56:45;;;;;;;7.33;2.30;;;;;;;-145.69;57.72;52046.34;5029427;28;20201;-80
2023/10/08 01:59:14;;;;;;;9.27;2.33;;;;;;;-145.69;57.98;52042.38;5030640;28;20204;-80
2023/10/08 02:01:41;;;;;;;10.30;2.57;;;;;;;-145.69;58.50;52050.31;5030141;28;20196;-80
2023/10/08 02:04:08;;;;;;;14.17;3.17;;;;;;;-145.69;58.12;52054.25;5029567;28;20235;-81
2023/10/08 02:06:35;;;;;;;19.92;2.72;;;;;;;-145.69;56.80;52032.47;5030419;28;20204;-82
2023/10/08 02:09:07;;;;;;;13.20;3.00;;;;;;;-145.69;56.92;52085.94;5030424;28;20211;-81
2023/10/08 02:11:43;;;;;;;9.93;3.00;;;;;;;-145.69;57.51;52072.09;5029882;28;20647;-81
2023/10/08 02:14:12;;;;;;;15.57;3.20;;;;;;;-145.69;57.82;52101.78;5030329;28;20200;-81
2023/10/08 02:16:40;;;;;;;13.50;3.37;;;;;;;-145.69;57.27;52060.22;5029679;28;20607;-81
2023/10/08 02:19:06;;;;;;;10.93;2.60;;;;;;;-145.69;58.02;52076.03;5030005;28;20779;-81
2023/10/08 02:21:33;;;;;;;15.67;3.07;;;;;;;-145.69;57.45;52076.03;5030240;28;20205;-80
2023/10/08 02:23:59;;;;;;;14.17;2.63;;;;;;;-145.69;57.28;52087.94;5030281;28;20234;-81
2023/10/08 02:26:26;;;;;;;9.67;2.47;;;;;;;-145.69;57.30;52068.13;5029863;28;20192;-81
2023/10/08 02:28:53;;;;;;;9.70;2.30;;;;;;;-145.69;56.74;52050.31;5029442;28;20201;-81
2023/10/08 02:31:22;;;;;;;18.15;2.65;;;;;;;-145.69;56.62;52050.31;5085952;27;20193;-81
2023/10/08 02:33:49;;;;;;;9.55;2.50;;;;;;;-145.69;56.65;52103.78;5095329;27;20449;-81
2023/10/08 02:36:16;;;;;;;14.43;2.33;;;;;;;-145.69;55.47;52054.25;5029974;28;20235;-81
2023/10/08 02:38:42;;;;;;;9.52;2.70;;;;;;;-145.69;56.13;52089.91;5030097;28;20207;-81
2023/10/08 02:41:09;;;;;;;9.87;3.10;;;;;;;-145.69;57.11;52072.09;5029870;28;20208;-81
2023/10/08 02:43:36;;;;;;;11.17;2.60;;;;;;;-145.69;57.36;52032.47;5086696;28;20224;-81
2023/10/08 02:46:06;;;;;;;15.07;2.93;;;;;;;-145.69;57.22;52052.28;5097445;28;20659;-81
2023/10/08 02:48:35;;;;;;;16.00;2.90;;;;;;;-145.69;57.12;52066.16;5048121;28;20651;-81
2023/10/08 02:51:10;;;;;;;16.15;2.80;;;;;;;-145.69;56.63;52052.28;5133843;27;20201;-81
2023/10/08 02:53:37;;;;;;;12.83;3.03;;;;;;;-145.69;56.26;52099.81;5133870;27;20200;-81
2023/10/08 02:56:12;;;;;;;9.90;2.07;;;;;;;-145.69;56.80;52078.03;5133909;27;20269;-81
2023/10/08 02:58:38;;;;;;;17.75;2.80;;;;;;;-145.69;54.55;52066.16;5133717;27;20253;-81
2023/10/08 03:01:05;;;;;;;14.45;2.72;;;;;;;-145.69;54.86;52070.09;5133887;27;20193;-81
2023/10/08 03:03:32;;;;;;;17.00;2.22;;;;;;;-145.69;54.79;52040.41;5116112;27;20228;-81
2023/10/08 03:06:03;;;;;;;10.57;2.30;;;;;;;-145.69;53.80;52064.16;5032994;28;20676;-81
2023/10/08 03:08:31;;;;;;;5.20;2.00;;;;;;;-145.69;54.55;52054.25;5033143;28;20258;-81
2023/10/08 03:11:03;;;;;;;13.75;2.30;;;;;;;-145.69;53.93;52056.25;5032634;28;20200;-81
2023/10/08 03:13:31;;;;;;;22.80;3.08;;;;;;;-145.69;53.83;52042.38;5033233;28;20215;-81
2023/10/08 03:16:08;;;;;;;12.82;2.10;;;;;;;-145.69;55.53;52070.09;5033307;28;20295;-81
2023/10/08 03:18:36;;;;;;;8.10;2.33;;;;;;;-145.69;55.69;52060.22;5033149;28;20246;-80
2023/10/08 03:21:19;;;;;;;7.60;2.30;;;;;;;-145.69;55.71;52052.28;5033025;28;20240;-81
2023/10/08 03:23:47;;;;;;;11.60;2.53;;;;;;;-145.69;55.72;52054.25;5033248;28;20267;-81
2023/10/08 03:26:32;;;;;;;13.95;2.50;;;;;;;-145.69;54.95;52064.16;5033126;28;20207;-81
2023/10/08 03:29:04;;;;;;;15.23;2.63;;;;;;;-145.69;54.97;52060.22;5033173;28;20199;-81
2023/10/08 03:31:44;;;;;;;7.55;2.50;;;;;;;-145.69;55.19;52076.03;5033206;28;20260;-80
2023/10/08 03:34:14;;;;;;;7.95;2.13;;;;;;;-145.69;54.64;52066.16;5032648;28;20192;-81
2023/10/08 03:36:47;;;;;;;9.02;2.60;;;;;;;-145.69;55.01;52076.03;5032525;28;20243;-81
2023/10/08 03:39:18;;;;;;;6.50;2.10;;;;;;;-145.69;54.26;52085.94;5032634;28;20188;-80
2023/10/08 03:41:58;;;;;;;10.85;2.90;;;;;;;-145.69;54.62;52078.03;5032647;28;20204;-81
2023/10/08 03:44:24;;;;;;;7.75;2.00;;;;;;;-145.69;55.97;52068.13;5032504;28;20236;-81
2023/10/08 03:46:52;;;;;;;11.77;2.03;;;;;;;-145.69;56.02;52024.56;5032580;28;20208;-81
2023/10/08 03:49:26;;;;;;;14.90;2.85;;;;;;;-145.69;55.31;52072.09;5032444;28;20655;-81
2023/10/08 03:51:57;;;;;;;13.25;2.50;;;;;;;-145.69;55.23;52076.03;5032207;28;20207;-81
2023/10/08 03:54:29;;;;;;;12.07;2.38;;;;;;;-145.69;55.52;52062.19;5032461;28;20227;-81
2023/10/08 03:57:04;;;;;;;14.43;2.45;;;;;;;-145.69;56.25;52068.13;5032732;28;20299;-81
2023/10/08 03:59:34;;;;;;;9.38;2.28;;;;;;;-145.69;56.42;52050.31;5030513;28;20290;-81
2023/10/08 04:02:10;;;;;;;12.77;2.53;;;;;;;-145.69;56.21;52044.38;5032512;28;20236;-81
2023/10/08 04:04:50;;;;;;;9.52;2.67;;;;;;;-145.69;55.99;52066.16;5031778;28;20240;-81
2023/10/08 04:07:28;;;;;;;11.00;2.80;;;;;;;-145.69;56.34;52032.47;5032465;28;20587;-81
2023/10/08 04:10:05;;;;;;;13.82;2.85;;;;;;;-145.69;53.70;52042.38;5032209;28;20196;-81
2023/10/08 04:12:35;;;;;;;10.48;2.53;;;;;;;-145.69;52.67;52040.41;5032281;28;20211;-81
2023/10/08 04:15:07;;;;;;;22.52;3.13;;;;;;;-145.69;53.42;52028.53;5031425;28;20666;-82
2023/10/08 04:17:43;;;;;;;15.75;2.78;;;;;;;-145.69;54.11;52066.16;5032039;28;20212;-81
2023/10/08 04:20:32;;;;;;;15.57;2.60;;;;;;;-145.69;54.57;52046.34;5032295;28;20295;-81
2023/10/08 04:23:00;;;;;;;13.45;2.72;;;;;;;-145.69;54.14;52044.38;5050068;27;20211;-81
2023/10/08 04:25:27;;;;;;;9.27;2.15;;;;;;;-145.69;54.56;52076.03;5135855;27;20231;-80
2023/10/08 04:27:57;;;;;;;12.13;2.50;;;;;;;-145.69;54.48;52087.94;5135926;27;20706;-81
2023/10/08 04:30:32;;;;;;;11.93;2.42;;;;;;;-145.69;53.44;52091.88;5134950;27;20211;-82
2023/10/08 04:33:06;;;;;;;12.70;2.55;;;;;;;-145.69;53.88;52068.13;5136120;27;20745;-81
2023/10/08 04:35:36;;;;;;;19.08;2.60;;;;;;;-145.69;53.83;52048.31;5037554;27;20235;-81
2023/10/08 04:38:04;;;;;;;13.63;2.40;;;;;;;-145.69;53.16;52038.44;5031259;28;20269;-81
2023/10/08 04:40:41;;;;;;;17.02;2.55;;;;;;;-145.69;53.91;52054.25;5031265;28;20196;-81
2023/10/08 04:43:10;;;;;;;13.57;2.92;;;;;;;-145.69;53.06;52056.25;5030247;28;20196;-80
2023/10/08 04:45:37;;;;;;;10.65;3.00;;;;;;;-145.69;52.91;52056.25;5045067;27;20228;-81
2023/10/08 04:48:14;;;;;;;19.77;2.90;;;;;;;-145.69;52.01;52052.28;5030183;28;20201;-81
2023/10/08 04:50:44;;;;;;;18.23;2.85;;;;;;;-145.69;51.87;52064.16;5031451;28;20862;-82
2023/10/08 04:53:31;;;;;;;18.33;2.58;;;;;;;-145.69;51.00;52056.25;5031908;28;20207;-81
2023/10/08 04:55:58;;;;;;;14.52;2.47;;;;;;;-145.69;53.24;52052.28;5031697;28;20204;-81
2023/10/08 04:58:36;;;;;;;17.52;2.97;;;;;;;-145.69;53.17;52056.25;5108173;27;20199;-81
2023/10/08 05:03:56;;;;;;;11.05;2.75;;;;;;;-145.69;53.35;52052.28;5036967;27;20532;-81
2023/10/08 05:06:39;;;;;;;8.55;1.85;;;;;;;-145.69;53.39;52091.88;5031395;28;20539;-81
2023/10/08 05:09:22;;;;;;;15.40;2.73;;;;;;;-145.69;52.52;52038.44;5031358;28;20200;-82
2023/10/08 05:12:11;;;;;;;11.53;2.40;;;;;;;-145.69;52.59;52062.19;5031330;28;20233;-81
2023/10/08 05:14:45;;;;;;;12.87;2.20;;;;;;;-145.69;52.72;52056.25;5031123;28;20235;-81
2023/10/08 05:17:22;;;;;;;14.63;2.65;;;;;;;-145.69;51.68;52026.53;5031360;28;20199;-81
2023/10/08 05:20:16;;;;;;;15.85;2.95;;;;;;;-145.69;51.86;52050.31;5031165;28;20204;-81
2023/10/08 05:22:55;;;;;;;13.48;2.50;;;;;;;-145.69;51.71;52068.13;5030920;28;20196;-81
2023/10/08 05:25:35;;;;;;;11.20;2.40;;;;;;;-145.69;51.92;52046.34;5031070;28;20231;-81
2023/10/08 05:28:24;;;;;;;18.75;2.50;;;;;;;-145.69;51.73;52050.31;5030091;28;20208;-81
2023/10/08 05:30:54;;;;;;;12.83;2.20;;;;;;;-145.69;52.64;52060.22;5031105;28;20562;-81
2023/10/08 05:33:44;;;;;;;13.65;2.88;;;;;;;-145.69;52.24;52048.31;5030481;28;20239;-81
2023/10/08 05:36:18;;;;;;;12.73;2.80;;;;;;;-145.69;53.22;52068.13;5030581;28;20327;-81
2023/10/08 05:39:00;;;;;;;8.77;2.23;;;;;;;-145.69;53.27;52064.16;5030644;28;20651;-81
2023/10/08 05:41:38;;;;;;;13.87;3.07;;;;;;;-145.69;53.95;52064.16;5030904;28;20208;-81
2023/10/08 05:44:23;;;;;;;13.68;2.45;;;;;;;-145.69;54.59;52064.16;5030661;28;20198;-80
2023/10/08 05:47:06;;;;;;;10.60;2.53;;;;;;;-145.69;54.65;52044.38;5030425;28;20255;-81
2023/10/08 05:49:54;;;;;;;17.33;2.40;;;;;;;-145.69;54.03;52064.16;5031006;28;20208;-81
2023/10/08 05:52:50;;;;;;;15.00;2.40;;;;;;;-145.69;53.32;52032.47;5030305;28;20195;-81
2023/10/08 05:55:26;;;;;;;12.13;2.50;;;;;;;-145.69;53.29;52028.53;5030461;28;20663;-81
2023/10/08 05:58:13;;;;;;;10.52;2.38;;;;;;;-145.69;53.43;52072.09;5030679;28;20196;-82
2023/10/08 06:04:00;;;;;;;11.88;2.85;;;;;;;-145.69;53.91;52028.53;5090357;27;20543;-81
2023/10/08 06:06:47;;;;;;;12.57;2.60;;;;;;;-145.69;53.65;52060.22;5090328;28;20225;-80
2023/10/08 06:09:22;;;;;;;10.88;2.55;;;;;;;-145.69;53.04;52091.88;5090329;28;20229;-81
2023/10/08 06:12:08;;;;;;;14.73;2.60;;;;;;;-145.69;53.87;52046.34;5089955;28;20774;-80
2023/10/08 06:14:52;;;;;;;13.07;2.78;;;;;;;-145.69;53.95;52046.34;5090464;28;20232;-81
2023/10/08 06:17:34;;;;;;;19.67;3.15;;;;;;;-145.69;53.48;52040.41;5090324;28;20237;-81
2023/10/08 06:20:09;;;;;;;18.50;2.75;;;;;;;-145.69;53.50;52024.56;5090139;28;20201;-81
2023/10/08 06:22:38;;;;;;;11.60;2.40;;;;;;;-145.69;53.95;52056.25;5089492;28;20264;-81
2023/10/08 06:25:23;;;;;;;10.00;2.72;;;;;;;-145.69;53.63;52030.50;5090142;28;20206;-82
2023/10/08 06:27:57;;;;;;;9.85;2.05;;;;;;;-145.69;53.92;52048.31;5089546;28;20592;-81
2023/10/08 06:30:28;;;;;;;14.07;2.75;;;;;;;-145.69;53.70;52010.69;5089689;28;20193;-81
2023/10/08 06:33:03;;;;;;;11.35;2.28;;;;;;;-145.69;53.98;52048.31;5089778;28;20649;-81
2023/10/08 06:35:35;;;;;;;11.05;2.78;;;;;;;-145.69;53.47;52060.22;5089777;28;20671;-81
2023/10/08 06:38:09;;;;;;;19.42;2.63;;;;;;;-145.69;53.51;52048.31;5089754;28;20251;-81
2023/10/08 06:40:42;;;;;;;14.35;1.95;;;;;;;-145.69;53.24;52060.22;5089292;28;20201;-81
2023/10/08 06:43:21;;;;;;;13.40;2.97;;;;;;;-145.69;53.19;52028.53;5089600;28;20711;-81
2023/10/08 06:45:52;;;;;;;16.63;3.03;;;;;;;-145.69;52.89;52004.75;5089767;28;20202;-81
2023/10/08 06:48:20;;;;;;;13.38;2.45;;;;;;;-145.69;52.48;52022.59;5089309;28;20236;-81
2023/10/08 06:50:49;;;;;;;19.27;2.78;;;;;;;-145.69;52.62;52032.47;5089230;28;20202;-81
2023/10/08 06:53:21;;;;;;;9.05;2.20;;;;;;;-145.69;52.07;52032.47;5088854;28;20239;-81
2023/10/08 06:55:54;;;;;;;11.45;2.22;;;;;;;-145.69;52.60;52008.72;5089308;28;20195;-81
2023/10/08 06:58:21;;;;;;;12.65;2.38;;;;;;;-145.69;52.01;52022.59;5075406;28;20206;-81
2023/10/08 07:00:58;;;;;;;10.10;2.45;;;;;;;-145.69;52.00;52004.75;5069045;28;20229;-81
2023/10/08 07:03:29;;;;;;;13.50;2.53;;;;;;;-145.69;51.66;52026.53;5068772;28;20315;-81
2023/10/08 07:05:59;;;;;;;10.52;2.40;;;;;;;-145.69;51.55;52008.72;5069058;28;20242;-81
2023/10/08 07:08:31;;;;;;;12.88;2.70;;;;;;;-145.69;51.96;52002.78;5068897;28;20289;-81
2023/10/08 07:11:06;;;;;;;14.85;1.95;;;;;;;-145.69;51.07;52024.56;5068904;28;20203;-81
2023/10/08 07:13:37;;;;;;;10.85;2.83;;;;;;;-145.69;50.87;52020.59;5063958;28;20207;-81
2023/10/08 07:16:08;;;;;;;14.35;2.25;;;;;;;-145.69;49.76;52010.69;5055555;28;20613;-81
2023/10/08 07:18:34;;;;;;;13.45;2.90;;;;;;;-145.69;49.94;51986.94;5070209;28;20199;-81
2023/10/08 07:21:11;;;;;;;6.50;2.15;;;;;;;-145.69;50.21;51973.06;5074948;28;20204;-81
2023/10/08 07:23:55;;;;;;;5.30;2.00;;;;;;;-145.69;49.99;51996.84;5063705;28;20625;-81
2023/10/08 07:26:35;;;;;;;11.07;1.95;;;;;;;-145.69;49.93;51992.88;5075483;28;20203;-81
2023/10/08 07:29:05;;;;;;;6.13;1.92;;;;;;;-145.69;49.56;51982.97;5075146;28;20194;-81
2023/10/08 07:31:50;;;;;;;9.85;2.10;;;;;;;-145.69;49.66;52004.75;5075442;28;20233;-81
2023/10/08 07:34:25;;;;;;;7.78;2.33;;;;;;;-145.69;50.04;52016.66;5075430;28;20210;-81
2023/10/08 07:36:55;;;;;;;4.53;1.65;;;;;;;-145.69;49.88;51990.91;5075266;28;20209;-81
2023/10/08 07:39:33;;;;;;;6.05;1.83;;;;;;;-145.69;49.68;51961.19;5075235;28;20203;-81
2023/10/08 07:42:01;;;;;;;8.20;1.92;;;;;;;-145.69;49.63;51984.97;5075303;28;20206;-81
2023/10/08 07:44:30;;;;;;;13.15;1.85;;;;;;;-145.69;50.29;52012.69;5074955;28;20205;-81
2023/10/08 07:46:57;;;;;;;7.95;2.10;;;;;;;-145.69;50.75;52024.56;5074936;28;20553;-81
2023/10/08 07:49:29;;;;;;;6.95;2.45;;;;;;;-145.69;50.74;52004.75;5074851;28;20203;-81
2023/10/08 07:51:58;;;;;;;7.72;2.08;;;;;;;-145.69;50.39;51992.88;5074320;28;20728;-81
2023/10/08 07:54:34;;;;;;;6.18;1.90;;;;;;;-145.69;50.67;52000.81;5074921;28;20195;-81
2023/10/08 07:57:08;;;;;;;11.32;2.15;;;;;;;-145.69;50.34;51986.94;5074785;28;20748;-81
2023/10/08 07:59:46;;;;;;;4.95;1.67;;;;;;;-145.69;49.87;51979.03;5075008;28;20206;-81
2023/10/08 08:02:17;;;;;;;4.75;2.20;;;;;;;-145.69;50.07;51961.19;5074398;28;20755;-81
2023/10/08 08:04:52;;;;;;;3.70;1.50;;;;;;;-145.69;50.00;51973.06;5074711;28;20221;-81
2023/10/08 08:07:20;;;;;;;7.25;2.15;;;;;;;-145.69;50.19;51949.31;5074706;28;20284;-82
2023/10/08 08:09:51;;;;;;;9.98;2.45;;;;;;;-145.69;50.14;51977.03;5074642;28;20201;-81
2023/10/08 08:12:25;;;;;;;5.90;1.95;;;;;;;-145.69;50.17;51992.88;5074401;28;20217;-81
2023/10/08 08:14:51;;;;;;;7.32;2.05;;;;;;;-145.69;50.05;51969.13;5074270;28;20268;-79
2023/10/08 08:17:18;;;;;;;6.65;2.30;;;;;;;-145.69;49.94;51979.03;5074567;28;20206;-79
2023/10/08 08:19:47;;;;;;;5.60;1.83;;;;;;;-145.69;49.62;51973.06;5074300;28;20195;-79
2023/10/08 08:22:20;;;;;;;7.47;1.98;;;;;;;-145.69;49.80;51961.19;5073834;28;20724;-79
2023/10/08 08:24:52;;;;;;;4.47;1.67;;;;;;;-145.69;49.65;51969.13;5073774;28;20203;-79
2023/10/08 08:27:25;;;;;;;11.20;2.38;;;;;;;-145.69;49.57;51979.03;5073749;28;20205;-79
2023/10/08 08:29:55;;;;;;;9.25;1.73;;;;;;;-145.69;49.37;51971.09;5074470;28;20203;-78
2023/10/08 08:32:23;;;;;;;8.45;1.92;;;;;;;-145.69;49.58;51953.28;5074220;28;20653;-79
2023/10/08 08:34:50;;;;;;;12.23;2.90;;;;;;;-145.69;50.73;51963.19;5072970;28;20434;-80
2023/10/08 08:37:17;;;;;;;7.07;2.30;;;;;;;-145.69;49.98;51988.91;5074118;28;20284;-79
2023/10/08 08:39:44;;;;;;;11.57;2.50;;;;;;;-145.69;49.30;51971.09;5073820;28;20684;-79
2023/10/08 08:42:11;;;;;;;7.03;2.10;;;;;;;-145.69;48.46;51981.00;5073816;28;20201;-79
2023/10/08 08:44:45;;;;;;;12.52;2.13;;;;;;;-145.69;46.49;51965.16;5073890;28;20198;-79
2023/10/08 08:47:17;;;;;;;7.90;2.15;;;;;;;-145.69;45.40;51965.16;5073824;28;20642;-79
2023/10/08 08:49:44;;;;;;;7.93;2.10;;;;;;;-145.69;42.49;51937.44;5073718;28;20215;-80
2023/10/08 08:52:11;;;;;;;8.60;2.17;;;;;;;-145.69;41.92;51925.56;5073480;28;20256;-79
2023/10/08 08:54:37;;;;;;;9.13;2.08;;;;;;;-145.69;40.64;51965.16;5073445;28;20234;-79
2023/10/08 08:57:06;;;;;;;13.57;2.80;;;;;;;-145.69;39.91;51917.63;5071209;28;20210;-79
2023/10/08 08:59:36;;;;;;;11.88;2.20;;;;;;;-145.69;38.73;51905.75;5073625;28;20195;-79
2023/10/08 09:02:04;;;;;;;10.98;2.17;;;;;;;-145.69;38.80;51919.63;5072443;28;20589;-79
2023/10/08 09:04:32;;;;;;;7.93;2.28;;;;;;;-145.69;38.68;51933.47;5073459;28;20728;-79
2023/10/08 09:07:00;;;;;;;19.83;2.75;;;;;;;-145.69;38.18;51925.56;5073452;28;20264;-79
2023/10/08 09:09:32;;;;;;;7.25;2.53;;;;;;;-145.69;37.50;51882.00;5073683;28;20203;-79
2023/10/08 09:11:59;;;;;;;10.35;2.40;;;;;;;-145.69;38.17;51913.69;5073572;28;20195;-80
2023/10/08 09:14:27;;;;;;;10.70;2.40;;;;;;;-145.69;37.17;51870.13;5073192;28;20191;-80
2023/10/08 09:16:55;;;;;;;8.55;2.63;;;;;;;-145.69;36.84;51889.91;5073417;28;20194;-79
2023/10/08 09:19:23;;;;;;;12.88;2.55;;;;;;;-145.69;36.91;51876.06;5073107;28;20195;-79
2023/10/08 09:22:03;;;;;;;14.18;2.80;;;;;;;-145.69;33.40;51893.88;5073160;28;20199;-79
2023/10/08 09:24:29;;;;;;;7.60;2.42;;;;;;;-145.69;34.27;51848.34;5073273;28;20238;-80
2023/10/08 09:26:58;;;;;;;10.35;2.50;;;;;;;-145.69;34.11;51872.09;5073233;28;20209;-80
2023/10/08 09:29:24;;;;;;;10.35;2.70;;;;;;;-145.69;34.44;51901.78;5073529;28;20301;-79
2023/10/08 09:31:56;;;;;;;13.60;3.35;;;;;;;-145.69;34.62;51874.06;5072547;28;20195;-80
2023/10/08 09:34:26;;;;;;;6.75;1.95;;;;;;;-145.69;35.07;51848.34;5073033;28;20209;-81
2023/10/08 09:36:53;;;;;;;10.05;2.60;;;;;;;-145.69;34.96;51878.03;5072581;28;20690;-80
2023/10/08 09:39:23;;;;;;;14.15;2.63;;;;;;;-145.69;35.60;51826.56;5073197;28;20217;-80
2023/10/08 09:41:51;;;;;;;17.05;2.47;;;;;;;-145.69;34.88;51874.06;5073122;28;20231;-80
2023/10/08 09:44:20;;;;;;;14.98;2.72;;;;;;;-145.69;34.64;51856.25;5072925;28;20307;-80
2023/10/08 09:46:52;;;;;;;18.60;3.28;;;;;;;-145.69;32.87;51850.31;5073028;28;20210;-80
2023/10/08 09:49:25;;;;;;;13.07;2.88;;;;;;;-145.69;33.30;51878.03;5072595;28;20649;-80
2023/10/08 09:51:53;;;;;;;15.00;3.25;;;;;;;-145.69;32.02;51842.38;5072874;28;20535;-80
2023/10/08 09:54:25;;;;;;;10.60;2.58;;;;;;;-145.69;31.52;51846.34;5072484;28;20949;-80
2023/10/08 09:56:52;;;;;;;11.23;2.63;;;;;;;-145.69;31.92;51856.25;5072568;28;20618;-80
2023/10/08 09:59:20;;;;;;;13.32;3.00;;;;;;;-145.69;31.78;51838.44;5072858;28;20202;-81
2023/10/08 10:01:48;;;;;;;15.23;2.85;;;;;;;-145.69;32.28;51846.34;5071739;28;20229;-80
2023/10/08 10:04:24;;;;;;;17.05;2.97;;;;;;;-145.69;31.97;51850.31;5071858;28;20227;-80
2023/10/08 10:06:51;;;;;;;18.85;3.42;;;;;;;-145.69;31.93;51820.59;5071468;28;20285;-80
2023/10/08 10:09:21;;;;;;;23.23;3.53;;;;;;;-145.69;31.42;51850.31;5072786;28;20210;-80
2023/10/08 10:11:49;;;;;;;14.98;3.50;;;;;;;-145.69;31.53;51850.31;5072807;28;20202;-80
2023/10/08 10:14:17;;;;;;;16.20;3.10;;;;;;;-145.69;30.85;51846.34;5072881;28;20199;-80
2023/10/08 10:16:45;;;;;;;18.70;2.90;;;;;;;-145.69;31.41;51842.38;5072670;28;20202;-82
2023/10/08 10:19:17;;;;;;;23.27;3.17;;;;;;;-145.69;30.93;51834.47;5072678;28;20293;-81
2023/10/08 10:21:47;;;;;;;17.88;3.53;;;;;;;-145.69;30.93;51818.63;5072232;28;20194;-81
2023/10/08 10:24:23;;;;;;;13.90;3.13;;;;;;;-145.69;30.96;51826.56;5072405;28;20223;-80
2023/10/08 10:26:50;;;;;;;14.60;3.63;;;;;;;-145.69;30.97;51824.56;5072178;28;20222;-80
2023/10/08 10:29:26;;;;;;;13.18;3.17;;;;;;;-145.69;31.14;51838.44;5072449;28;20206;-80
2023/10/08 10:31:54;;;;;;;12.55;3.10;;;;;;;-145.69;31.10;51824.56;5072302;28;20217;-80
2023/10/08 10:34:22;;;;;;;15.02;3.05;;;;;;;-145.69;31.03;51840.41;5072326;28;20202;-80
2023/10/08 10:36:55;;;;;;;17.02;3.13;;;;;;;-145.69;31.57;51834.47;5072301;28;20210;-80
2023/10/08 10:39:27;;;;;;;17.98;3.45;;;;;;;-145.69;30.61;51850.31;5072341;28;20294;-80
2023/10/08 10:41:57;;;;;;;18.23;5.60;;;;;;;-145.69;31.06;51806.75;5071641;28;20508;-81
2023/10/08 10:44:24;;;;;;;12.55;3.00;;;;;;;-145.69;30.73;51822.59;5072409;28;20337;-80
2023/10/08 10:46:51;;;;;;;12.60;4.50;;;;;;;-145.69;31.43;51790.91;5072434;28;20195;-80
2023/10/08 10:49:21;;;;;;;16.00;3.50;;;;;;;-145.69;30.96;51838.44;5073851;28;20199;-80
2023/10/08 10:51:57;;;;;;;16.42;3.63;;;;;;;-145.69;30.70;51824.56;5073044;28;20199;-79
2023/10/08 10:54:23;;;;;;;11.52;3.05;;;;;;;-145.69;30.83;51842.38;5066163;28;20206;-80
2023/10/08 10:57:03;;;;;;;15.77;3.08;;;;;;;-145.69;30.86;51826.56;5066026;28;20195;-80
2023/10/08 10:59:36;;;;;;;13.63;3.00;;;;;;;-145.69;31.19;51806.75;5056544;28;20195;-80
2023/10/08 11:02:08;;;;;;;22.75;3.53;;;;;;;-145.69;30.45;51824.56;5063875;28;20231;-80
2023/10/08 11:04:47;;;;;;;15.02;3.00;;;;;;;-145.69;31.44;51820.59;5065955;28;20323;-80
2023/10/08 11:07:16;;;;;;;13.65;3.28;;;;;;;-145.69;31.01;51812.69;5066137;28;20206;-80
2023/10/08 11:09:44;;;;;;;13.13;3.03;;;;;;;-145.69;31.06;51826.56;5065842;28;20206;-80
2023/10/08 11:12:18;;;;;;;13.00;3.10;;;;;;;-145.69;31.15;51814.66;5065743;28;20213;-81
2023/10/08 11:14:47;;;;;;;15.82;3.30;;;;;;;-145.69;31.76;51830.50;5065587;28;20816;-80
2023/10/08 11:17:15;;;;;;;17.92;3.60;;;;;;;-145.69;32.17;51818.63;5065586;28;20203;-80
2023/10/08 11:19:45;;;;;;;18.95;3.10;;;;;;;-145.69;32.20;51798.81;5066033;28;20226;-80
2023/10/08 11:22:16;;;;;;;21.33;3.05;;;;;;;-145.69;31.29;51818.63;5065143;28;20195;-81
2023/10/08 11:24:47;;;;;;;20.50;3.20;;;;;;;-145.69;31.91;51806.75;5065850;28;20224;-81
2023/10/08 11:27:17;;;;;;;18.77;3.13;;;;;;;-145.69;31.90;51816.66;5066559;28;20785;-81
2023/10/08 11:29:46;;;;;;;15.07;3.85;;;;;;;-145.69;32.02;51800.81;5065631;28;20210;-81
2023/10/08 11:32:15;;;;;;;12.45;3.22;;;;;;;-145.69;32.94;51818.63;5065549;28;20649;-81
2023/10/08 11:34:42;;;;;;;21.80;3.97;;;;;;;-145.69;31.36;51820.59;5065318;28;20203;-81
2023/10/08 11:37:19;;;;;;;13.50;2.92;;;;;;;-145.69;30.14;51767.16;5065625;28;20206;-80
2023/10/08 11:39:48;;;;;;;17.42;3.10;;;;;;;-145.69;30.39;51749.31;5065500;28;20220;-81